LNR023 LESO-LOWI
Flight info
| Callsign | LNR023 |
|---|---|
| Flight time | 1h 44m |
| Altitude | 18000 |
| Route | PPN M299 DONOS R299 BTZ G17 BIDAC/N0445F290 DCT ORTEZ/N0444F300 DCT TBO DCT GONUP DCT TOU DCT GAI DCT MEN DCT NINUN DCT LATAM DCT ETREK DCT LTP DCT SOPLO DCT OMASI DCT KINNI DCT LAMUR DCT KORED DCT BERSU DCT DITON DCT DEGES DCT GAMSA N871 MADEB MADEB1B |
| Aircraft | A320/M-SDE3FGHIRWY/LB1 |
Departure
| Time | 2026-04-30 07:47 |
|---|---|
| Airport | San Sebastián Airport (LESO) |
Arrival
| Time | 2026-04-30 09:31 |
|---|---|
| Airport | Innsbruck Airport (LOWI) |
| Time | Latitude | Longitude | Altitude | Speed | Heading |
|---|---|---|---|---|---|
| 2026-04-30 07:36 | 43.35628 | -1.79240 | 18 ft | 0 kts | 220° |
| 2026-04-30 07:43 | 43.35628 | -1.79241 | 17 ft | 1 kts | 219° |
| 2026-04-30 07:43 | 43.35600 | -1.79260 | 17 ft | 12 kts | 206° |
| 2026-04-30 07:43 | 43.35526 | -1.79234 | 18 ft | 8 kts | 109° |
| 2026-04-30 07:43 | 43.35574 | -1.79147 | 18 ft | 19 kts | 39° |
| 2026-04-30 07:44 | 43.35644 | -1.79069 | 18 ft | 20 kts | 38° |
| 2026-04-30 07:44 | 43.35759 | -1.78947 | 19 ft | 22 kts | 38° |
| 2026-04-30 07:44 | 43.35919 | -1.78770 | 20 ft | 23 kts | 40° |
| 2026-04-30 07:44 | 43.36045 | -1.78629 | 22 ft | 24 kts | 39° |
| 2026-04-30 07:45 | 43.36131 | -1.78533 | 22 ft | 24 kts | 39° |
| 2026-04-30 07:45 | 43.36201 | -1.78428 | 26 ft | 12 kts | 70° |
| 2026-04-30 07:45 | 43.36245 | -1.78400 | 24 ft | 7 kts | 288° |
| 2026-04-30 07:45 | 43.36218 | -1.78441 | 24 ft | 6 kts | 201° |
| 2026-04-30 07:46 | 43.36187 | -1.78471 | 23 ft | 5 kts | 219° |
| 2026-04-30 07:46 | 43.36130 | -1.78534 | 22 ft | 27 kts | 218° |
| 2026-04-30 07:46 | 43.35775 | -1.78926 | 19 ft | 103 kts | 219° |
| 2026-04-30 07:46 | 43.35053 | -1.79706 | 178 ft | 146 kts | 218° |
| 2026-04-30 07:47 | 43.34304 | -1.80599 | 954 ft | 142 kts | 224° |
| 2026-04-30 07:47 | 43.33655 | -1.81623 | 1756 ft | 142 kts | 227° |
| 2026-04-30 07:47 | 43.32980 | -1.82673 | 2166 ft | 157 kts | 227° |
| 2026-04-30 07:47 | 43.32211 | -1.83850 | 2509 ft | 174 kts | 226° |
| 2026-04-30 07:48 | 43.31360 | -1.85162 | 2769 ft | 195 kts | 226° |
| 2026-04-30 07:48 | 43.30393 | -1.86645 | 3035 ft | 221 kts | 226° |
| 2026-04-30 07:48 | 43.29303 | -1.88310 | 3458 ft | 245 kts | 226° |
| 2026-04-30 07:48 | 43.28144 | -1.90092 | 4252 ft | 253 kts | 226° |
| 2026-04-30 07:49 | 43.26981 | -1.91884 | 5224 ft | 255 kts | 228° |
| 2026-04-30 07:49 | 43.25787 | -1.93726 | 6128 ft | 259 kts | 229° |
| 2026-04-30 07:49 | 43.24577 | -1.95589 | 6995 ft | 264 kts | 228° |
| 2026-04-30 07:49 | 43.23149 | -1.97185 | 7829 ft | 270 kts | 205° |
| 2026-04-30 07:50 | 43.21294 | -1.97621 | 8685 ft | 275 kts | 174° |
| 2026-04-30 07:50 | 43.19513 | -1.96643 | 9564 ft | 283 kts | 143° |
| 2026-04-30 07:50 | 43.18339 | -1.94494 | 10328 ft | 295 kts | 115° |
| 2026-04-30 07:50 | 43.17565 | -1.91778 | 10591 ft | 318 kts | 117° |
| 2026-04-30 07:51 | 43.16251 | -1.89251 | 10857 ft | 332 kts | 141° |
| 2026-04-30 07:51 | 43.14347 | -1.87400 | 11452 ft | 336 kts | 149° |
| 2026-04-30 07:51 | 43.12369 | -1.85667 | 12204 ft | 339 kts | 150° |
| 2026-04-30 07:51 | 43.10389 | -1.83967 | 12958 ft | 341 kts | 151° |
| 2026-04-30 07:52 | 43.08356 | -1.82239 | 13769 ft | 344 kts | 150° |
| 2026-04-30 07:52 | 43.06309 | -1.80503 | 14458 ft | 346 kts | 151° |
| 2026-04-30 07:52 | 43.04254 | -1.78754 | 15120 ft | 350 kts | 151° |
| 2026-04-30 07:52 | 43.02155 | -1.77149 | 15750 ft | 351 kts | 158° |
| 2026-04-30 07:53 | 42.99841 | -1.76078 | 16347 ft | 353 kts | 170° |
| 2026-04-30 07:53 | 42.97407 | -1.75497 | 16871 ft | 358 kts | 174° |
| 2026-04-30 07:53 | 42.94928 | -1.74956 | 17470 ft | 362 kts | 174° |
| 2026-04-30 07:53 | 42.92420 | -1.74407 | 18057 ft | 366 kts | 174° |
| 2026-04-30 07:54 | 42.89890 | -1.73850 | 18619 ft | 370 kts | 174° |
| 2026-04-30 07:54 | 42.87332 | -1.73287 | 19103 ft | 374 kts | 174° |
| 2026-04-30 07:54 | 42.84777 | -1.72722 | 19607 ft | 378 kts | 174° |
| 2026-04-30 07:54 | 42.82165 | -1.72144 | 20109 ft | 381 kts | 174° |
| 2026-04-30 07:55 | 42.79565 | -1.71327 | 20593 ft | 390 kts | 162° |
| 2026-04-30 07:55 | 42.77201 | -1.69397 | 21061 ft | 403 kts | 142° |
| 2026-04-30 07:55 | 42.75451 | -1.66426 | 21495 ft | 417 kts | 121° |
| 2026-04-30 07:55 | 42.74537 | -1.62357 | 21961 ft | 430 kts | 97° |
| 2026-04-30 07:56 | 42.74815 | -1.58286 | 22388 ft | 439 kts | 74° |
| 2026-04-30 07:56 | 42.76191 | -1.54580 | 22822 ft | 443 kts | 51° |
| 2026-04-30 07:56 | 42.78471 | -1.51796 | 23224 ft | 443 kts | 29° |
| 2026-04-30 07:56 | 42.81332 | -1.50331 | 23628 ft | 440 kts | 6° |
| 2026-04-30 07:57 | 42.84357 | -1.50396 | 24002 ft | 434 kts | 343° |
| 2026-04-30 07:57 | 42.87236 | -1.51601 | 24389 ft | 432 kts | 336° |
| 2026-04-30 07:57 | 42.90121 | -1.52819 | 24796 ft | 437 kts | 343° |
| 2026-04-30 07:57 | 42.93129 | -1.53270 | 25273 ft | 445 kts | 358° |
| 2026-04-30 07:58 | 42.96201 | -1.52510 | 25659 ft | 456 kts | 17° |
| 2026-04-30 07:58 | 42.99057 | -1.50553 | 25953 ft | 464 kts | 30° |
| 2026-04-30 07:58 | 43.01886 | -1.48381 | 26310 ft | 465 kts | 24° |
| 2026-04-30 07:58 | 43.04936 | -1.46871 | 26640 ft | 466 kts | 12° |
| 2026-04-30 07:59 | 43.08083 | -1.46138 | 26977 ft | 465 kts | 1° |
| 2026-04-30 07:59 | 43.11310 | -1.46116 | 27299 ft | 464 kts | 352° |
| 2026-04-30 07:59 | 43.14515 | -1.46663 | 27655 ft | 463 kts | 348° |
| 2026-04-30 08:00 | 43.20954 | -1.47840 | 28391 ft | 467 kts | 348° |
| 2026-04-30 08:00 | 43.24140 | -1.48402 | 28716 ft | 469 kts | 349° |
| 2026-04-30 08:00 | 43.27393 | -1.48975 | 29030 ft | 471 kts | 349° |
| 2026-04-30 08:00 | 43.30667 | -1.49416 | 29344 ft | 476 kts | 358° |
| 2026-04-30 08:01 | 43.33966 | -1.48761 | 29651 ft | 483 kts | 15° |
| 2026-04-30 08:01 | 43.37047 | -1.46882 | 29944 ft | 488 kts | 31° |
| 2026-04-30 08:01 | 43.39734 | -1.44015 | 30203 ft | 492 kts | 45° |
| 2026-04-30 08:01 | 43.41850 | -1.40335 | 30510 ft | 491 kts | 60° |
| 2026-04-30 08:02 | 43.43793 | -1.31676 | 31598 ft | 469 kts | 90° |
| 2026-04-30 08:02 | 43.43580 | -1.27244 | 32021 ft | 462 kts | 102° |
| 2026-04-30 08:03 | 43.42428 | -1.18571 | 32701 ft | 460 kts | 103° |
| 2026-04-30 08:03 | 43.41244 | -1.09831 | 32979 ft | 470 kts | 103° |
| 2026-04-30 08:03 | 43.40679 | -1.05378 | 33166 ft | 473 kts | 103° |
| 2026-04-30 08:04 | 43.40144 | -1.00960 | 33443 ft | 474 kts | 102° |
| 2026-04-30 08:04 | 43.39612 | -0.96476 | 33758 ft | 474 kts | 102° |
| 2026-04-30 08:04 | 43.39081 | -0.92001 | 34078 ft | 474 kts | 102° |
| 2026-04-30 08:04 | 43.38541 | -0.87531 | 34358 ft | 474 kts | 102° |
| 2026-04-30 08:05 | 43.37989 | -0.83058 | 34652 ft | 473 kts | 103° |
| 2026-04-30 08:05 | 43.37429 | -0.78603 | 34948 ft | 473 kts | 103° |
| 2026-04-30 08:05 | 43.36870 | -0.74194 | 35216 ft | 472 kts | 103° |
| 2026-04-30 08:05 | 43.36477 | -0.69716 | 35506 ft | 473 kts | 95° |
| 2026-04-30 08:06 | 43.36317 | -0.65189 | 35769 ft | 473 kts | 95° |
| 2026-04-30 08:06 | 43.36158 | -0.60677 | 35991 ft | 473 kts | 95° |
| 2026-04-30 08:06 | 43.36000 | -0.56203 | 36053 ft | 473 kts | 95° |
| 2026-04-30 08:07 | 43.35674 | -0.47170 | 36058 ft | 473 kts | 95° |
| 2026-04-30 08:07 | 43.35335 | -0.38131 | 36057 ft | 473 kts | 95° |
| 2026-04-30 08:08 | 43.34997 | -0.29152 | 36054 ft | 473 kts | 96° |
| 2026-04-30 08:08 | 43.34643 | -0.20142 | 36056 ft | 473 kts | 96° |
| 2026-04-30 08:09 | 43.34284 | -0.11092 | 36078 ft | 473 kts | 96° |
| 2026-04-30 08:09 | 43.33922 | -0.02123 | 36075 ft | 473 kts | 96° |
| 2026-04-30 08:10 | 43.33545 | 0.06891 | 36059 ft | 472 kts | 96° |
| 2026-04-30 08:10 | 43.33677 | 0.15934 | 36067 ft | 476 kts | 82° |
| 2026-04-30 08:11 | 43.35380 | 0.24701 | 36062 ft | 477 kts | 75° |
| 2026-04-30 08:11 | 43.37247 | 0.33487 | 36070 ft | 477 kts | 75° |
| 2026-04-30 08:12 | 43.39074 | 0.42223 | 36058 ft | 477 kts | 75° |
| 2026-04-30 08:12 | 43.40904 | 0.51004 | 36064 ft | 477 kts | 75° |
| 2026-04-30 08:13 | 43.42723 | 0.59717 | 36068 ft | 477 kts | 75° |
| 2026-04-30 08:13 | 43.44547 | 0.68499 | 36091 ft | 475 kts | 76° |
| 2026-04-30 08:14 | 43.46624 | 0.77121 | 36084 ft | 475 kts | 65° |
| 2026-04-30 08:14 | 43.49764 | 0.85040 | 36093 ft | 474 kts | 62° |
| 2026-04-30 08:15 | 43.52968 | 0.92983 | 36093 ft | 473 kts | 62° |
| 2026-04-30 08:15 | 43.56130 | 1.00889 | 36090 ft | 472 kts | 62° |
| 2026-04-30 08:16 | 43.59294 | 1.08836 | 36090 ft | 472 kts | 62° |
| 2026-04-30 08:16 | 43.62440 | 1.16735 | 36077 ft | 472 kts | 62° |
| 2026-04-30 08:17 | 43.65589 | 1.24676 | 36091 ft | 471 kts | 62° |
| 2026-04-30 08:17 | 43.68895 | 1.32491 | 36093 ft | 471 kts | 54° |
| 2026-04-30 08:18 | 43.72801 | 1.39746 | 36089 ft | 471 kts | 54° |
| 2026-04-30 08:18 | 43.76694 | 1.47054 | 36088 ft | 471 kts | 54° |
| 2026-04-30 08:19 | 43.80561 | 1.54334 | 36075 ft | 471 kts | 54° |
| 2026-04-30 08:19 | 43.84441 | 1.61652 | 36088 ft | 470 kts | 54° |
| 2026-04-30 08:20 | 43.88287 | 1.68906 | 36085 ft | 469 kts | 54° |
| 2026-04-30 08:20 | 43.92154 | 1.76225 | 36088 ft | 469 kts | 54° |
| 2026-04-30 08:21 | 43.95974 | 1.83501 | 36085 ft | 468 kts | 54° |
| 2026-04-30 08:21 | 43.99724 | 1.90908 | 36085 ft | 468 kts | 56° |
| 2026-04-30 08:22 | 44.03397 | 1.98385 | 36085 ft | 467 kts | 56° |
| 2026-04-30 08:22 | 44.07053 | 2.05803 | 36092 ft | 467 kts | 56° |
| 2026-04-30 08:23 | 44.10739 | 2.13230 | 36100 ft | 466 kts | 56° |
| 2026-04-30 08:23 | 44.14429 | 2.20669 | 36094 ft | 466 kts | 56° |
| 2026-04-30 08:24 | 44.18075 | 2.28063 | 36094 ft | 465 kts | 56° |
| 2026-04-30 08:24 | 44.21732 | 2.35517 | 36084 ft | 466 kts | 56° |
| 2026-04-30 08:25 | 44.25394 | 2.42993 | 36088 ft | 466 kts | 56° |
| 2026-04-30 08:25 | 44.29054 | 2.50460 | 36097 ft | 466 kts | 56° |
| 2026-04-30 08:26 | 44.32689 | 2.57905 | 36109 ft | 466 kts | 56° |
| 2026-04-30 08:26 | 44.36348 | 2.65417 | 36111 ft | 466 kts | 56° |
| 2026-04-30 08:27 | 44.39966 | 2.72873 | 36106 ft | 466 kts | 56° |
| 2026-04-30 08:27 | 44.43602 | 2.80376 | 36116 ft | 465 kts | 56° |
| 2026-04-30 08:28 | 44.47227 | 2.87874 | 36124 ft | 464 kts | 56° |
| 2026-04-30 08:28 | 44.50836 | 2.95369 | 36123 ft | 464 kts | 56° |
| 2026-04-30 08:29 | 44.54413 | 3.02824 | 36116 ft | 464 kts | 56° |
| 2026-04-30 08:29 | 44.58022 | 3.10357 | 36114 ft | 463 kts | 56° |
| 2026-04-30 08:30 | 44.61562 | 3.17854 | 36121 ft | 463 kts | 58° |
| 2026-04-30 08:30 | 44.64825 | 3.25664 | 36116 ft | 463 kts | 61° |
| 2026-04-30 08:31 | 44.67884 | 3.33613 | 36118 ft | 463 kts | 62° |
| 2026-04-30 08:31 | 44.70977 | 3.41597 | 36110 ft | 464 kts | 61° |
| 2026-04-30 08:32 | 44.74113 | 3.49472 | 36107 ft | 464 kts | 60° |
| 2026-04-30 08:32 | 44.77286 | 3.57391 | 36107 ft | 463 kts | 60° |
| 2026-04-30 08:33 | 44.80428 | 3.65267 | 36110 ft | 463 kts | 61° |
| 2026-04-30 08:33 | 44.83561 | 3.73204 | 36111 ft | 463 kts | 61° |
| 2026-04-30 08:34 | 44.86673 | 3.81114 | 36107 ft | 463 kts | 60° |
| 2026-04-30 08:34 | 44.89799 | 3.89076 | 36105 ft | 464 kts | 60° |
| 2026-04-30 08:35 | 44.92925 | 3.97046 | 36124 ft | 464 kts | 60° |
| 2026-04-30 08:35 | 44.95515 | 4.03679 | 36129 ft | 463 kts | 60° |
| 2026-04-30 08:36 | 44.99125 | 4.12936 | 36136 ft | 462 kts | 60° |
| 2026-04-30 08:36 | 45.01696 | 4.19555 | 36141 ft | 462 kts | 61° |
| 2026-04-30 08:37 | 45.04796 | 4.27543 | 36122 ft | 462 kts | 60° |
| 2026-04-30 08:37 | 45.07866 | 4.35468 | 36128 ft | 462 kts | 60° |
| 2026-04-30 08:38 | 45.10947 | 4.43459 | 36130 ft | 462 kts | 60° |
| 2026-04-30 08:38 | 45.14024 | 4.51463 | 36137 ft | 461 kts | 60° |
| 2026-04-30 08:39 | 45.17063 | 4.59400 | 36136 ft | 461 kts | 60° |
| 2026-04-30 08:39 | 45.20115 | 4.67392 | 36140 ft | 461 kts | 60° |
| 2026-04-30 08:40 | 45.23167 | 4.75407 | 36134 ft | 461 kts | 60° |
| 2026-04-30 08:40 | 45.26192 | 4.83366 | 36132 ft | 461 kts | 61° |
| 2026-04-30 08:41 | 45.29234 | 4.91405 | 36147 ft | 460 kts | 61° |
| 2026-04-30 08:41 | 45.32259 | 4.99417 | 36152 ft | 459 kts | 61° |
| 2026-04-30 08:42 | 45.35251 | 5.07371 | 36147 ft | 459 kts | 61° |
| 2026-04-30 08:42 | 45.38259 | 5.15379 | 36145 ft | 458 kts | 61° |
| 2026-04-30 08:43 | 45.41262 | 5.23393 | 36144 ft | 458 kts | 61° |
| 2026-04-30 08:43 | 45.44239 | 5.31373 | 36141 ft | 458 kts | 61° |
| 2026-04-30 08:44 | 45.47228 | 5.39402 | 36146 ft | 458 kts | 60° |
| 2026-04-30 08:44 | 45.51024 | 5.46570 | 36151 ft | 454 kts | 41° |
| 2026-04-30 08:45 | 45.55719 | 5.52570 | 36151 ft | 453 kts | 40° |
| 2026-04-30 08:45 | 45.60421 | 5.58581 | 36156 ft | 453 kts | 40° |
| 2026-04-30 08:46 | 45.65089 | 5.64559 | 36193 ft | 453 kts | 40° |
| 2026-04-30 08:46 | 45.69772 | 5.70566 | 36193 ft | 452 kts | 40° |
| 2026-04-30 08:47 | 45.74461 | 5.76605 | 36190 ft | 452 kts | 40° |
| 2026-04-30 08:47 | 45.79147 | 5.82629 | 36197 ft | 452 kts | 40° |
| 2026-04-30 08:48 | 45.83827 | 5.88647 | 36203 ft | 452 kts | 39° |
| 2026-04-30 08:48 | 45.88470 | 5.94638 | 36211 ft | 451 kts | 39° |
| 2026-04-30 08:49 | 45.93135 | 6.00673 | 36208 ft | 451 kts | 39° |
| 2026-04-30 08:49 | 45.97794 | 6.06709 | 36203 ft | 450 kts | 39° |
| 2026-04-30 08:50 | 46.02413 | 6.12719 | 36209 ft | 450 kts | 40° |
| 2026-04-30 08:50 | 46.07050 | 6.18765 | 36215 ft | 449 kts | 40° |
| 2026-04-30 08:51 | 46.11096 | 6.25645 | 36229 ft | 451 kts | 53° |
| 2026-04-30 08:51 | 46.14686 | 6.33004 | 36225 ft | 451 kts | 53° |
| 2026-04-30 08:52 | 46.18295 | 6.40417 | 36230 ft | 451 kts | 52° |
| 2026-04-30 08:52 | 46.21873 | 6.47764 | 36234 ft | 449 kts | 53° |
| 2026-04-30 08:53 | 46.25450 | 6.55140 | 36235 ft | 447 kts | 53° |
| 2026-04-30 08:53 | 46.29010 | 6.62514 | 36219 ft | 446 kts | 53° |
| 2026-04-30 08:54 | 46.32530 | 6.69824 | 36221 ft | 445 kts | 53° |
| 2026-04-30 08:54 | 46.36063 | 6.77160 | 36201 ft | 444 kts | 53° |
| 2026-04-30 08:55 | 46.39597 | 6.84510 | 36230 ft | 444 kts | 53° |
| 2026-04-30 08:55 | 46.43120 | 6.91863 | 36224 ft | 443 kts | 53° |
| 2026-04-30 08:56 | 46.46599 | 6.99153 | 36215 ft | 442 kts | 54° |
| 2026-04-30 08:56 | 46.50094 | 7.06500 | 36216 ft | 442 kts | 54° |
| 2026-04-30 08:57 | 46.53577 | 7.13845 | 36205 ft | 441 kts | 54° |
| 2026-04-30 08:57 | 46.57316 | 7.20893 | 36192 ft | 439 kts | 43° |
| 2026-04-30 08:58 | 46.62213 | 7.25986 | 36204 ft | 435 kts | 25° |
| 2026-04-30 08:58 | 46.67726 | 7.29688 | 36203 ft | 435 kts | 24° |
| 2026-04-30 08:59 | 46.73228 | 7.33402 | 36221 ft | 435 kts | 24° |
| 2026-04-30 08:59 | 46.78671 | 7.37094 | 36244 ft | 433 kts | 24° |
| 2026-04-30 09:00 | 46.83995 | 7.41162 | 36244 ft | 431 kts | 35° |
| 2026-04-30 09:00 | 46.88245 | 7.47247 | 36241 ft | 432 kts | 50° |
| 2026-04-30 09:01 | 46.91984 | 7.54143 | 36232 ft | 432 kts | 50° |
| 2026-04-30 09:01 | 46.95719 | 7.61024 | 36251 ft | 431 kts | 50° |
| 2026-04-30 09:02 | 47.01280 | 7.71288 | 36251 ft | 429 kts | 50° |
| 2026-04-30 09:02 | 47.04979 | 7.78152 | 36258 ft | 428 kts | 50° |
| 2026-04-30 09:03 | 47.08644 | 7.84971 | 36257 ft | 428 kts | 50° |
| 2026-04-30 09:03 | 47.12322 | 7.91828 | 36263 ft | 427 kts | 51° |
| 2026-04-30 09:04 | 47.15681 | 7.99066 | 36269 ft | 428 kts | 56° |
| 2026-04-30 09:04 | 47.18829 | 8.06438 | 36274 ft | 427 kts | 57° |
| 2026-04-30 09:05 | 47.21970 | 8.13822 | 36268 ft | 427 kts | 57° |
| 2026-04-30 09:05 | 47.25120 | 8.21255 | 36267 ft | 427 kts | 57° |
| 2026-04-30 09:06 | 47.28255 | 8.28661 | 36274 ft | 427 kts | 57° |
| 2026-04-30 09:06 | 47.30635 | 8.36694 | 36275 ft | 432 kts | 74° |
| 2026-04-30 09:07 | 47.31784 | 8.45401 | 36270 ft | 433 kts | 77° |
| 2026-04-30 09:07 | 47.32914 | 8.54087 | 36267 ft | 434 kts | 77° |
| 2026-04-30 09:08 | 47.34052 | 8.62851 | 36265 ft | 434 kts | 77° |
| 2026-04-30 09:08 | 47.35167 | 8.71565 | 36265 ft | 434 kts | 77° |
| 2026-04-30 09:09 | 47.36284 | 8.80320 | 36282 ft | 434 kts | 77° |
| 2026-04-30 09:09 | 47.37394 | 8.89071 | 36274 ft | 434 kts | 77° |
| 2026-04-30 09:10 | 47.38481 | 8.97768 | 36271 ft | 434 kts | 77° |
| 2026-04-30 09:10 | 47.39568 | 9.06532 | 36265 ft | 434 kts | 77° |
| 2026-04-30 09:11 | 47.40646 | 9.15303 | 36257 ft | 434 kts | 77° |
| 2026-04-30 09:11 | 47.41233 | 9.24150 | 36269 ft | 437 kts | 88° |
| 2026-04-30 09:12 | 47.41159 | 9.33127 | 36266 ft | 437 kts | 88° |
| 2026-04-30 09:12 | 47.41077 | 9.42113 | 36277 ft | 437 kts | 88° |
| 2026-04-30 09:13 | 47.41033 | 9.46575 | 35485 ft | 433 kts | 88° |
| 2026-04-30 09:13 | 47.40990 | 9.51059 | 34031 ft | 437 kts | 87° |
| 2026-04-30 09:13 | 47.40945 | 9.55477 | 32603 ft | 435 kts | 88° |
| 2026-04-30 09:13 | 47.40898 | 9.59946 | 31081 ft | 434 kts | 88° |
| 2026-04-30 09:14 | 47.40828 | 9.64388 | 29767 ft | 429 kts | 90° |
| 2026-04-30 09:14 | 47.40396 | 9.68739 | 28314 ft | 426 kts | 96° |
| 2026-04-30 09:14 | 47.39842 | 9.73005 | 26926 ft | 420 kts | 97° |
| 2026-04-30 09:14 | 47.39291 | 9.77212 | 25624 ft | 415 kts | 97° |
| 2026-04-30 09:15 | 47.38744 | 9.81371 | 24367 ft | 409 kts | 97° |
| 2026-04-30 09:15 | 47.38205 | 9.85474 | 23052 ft | 405 kts | 97° |
| 2026-04-30 09:15 | 47.37676 | 9.89495 | 21829 ft | 400 kts | 97° |
| 2026-04-30 09:15 | 47.37151 | 9.93494 | 20606 ft | 394 kts | 97° |
| 2026-04-30 09:16 | 47.36629 | 9.97441 | 19573 ft | 388 kts | 97° |
| 2026-04-30 09:16 | 47.36125 | 10.01231 | 19216 ft | 366 kts | 97° |
| 2026-04-30 09:16 | 47.35642 | 10.04840 | 18724 ft | 350 kts | 97° |
| 2026-04-30 09:16 | 47.35184 | 10.08266 | 18217 ft | 343 kts | 97° |
| 2026-04-30 09:17 | 47.34729 | 10.11707 | 17723 ft | 341 kts | 97° |
| 2026-04-30 09:17 | 47.34277 | 10.15125 | 17255 ft | 340 kts | 98° |
| 2026-04-30 09:17 | 47.33825 | 10.18535 | 16769 ft | 338 kts | 98° |
| 2026-04-30 09:17 | 47.33372 | 10.21934 | 16290 ft | 336 kts | 98° |
| 2026-04-30 09:18 | 47.32920 | 10.25303 | 15815 ft | 334 kts | 99° |
| 2026-04-30 09:18 | 47.32467 | 10.28680 | 15334 ft | 335 kts | 99° |
| 2026-04-30 09:18 | 47.32009 | 10.32054 | 14856 ft | 335 kts | 99° |
| 2026-04-30 09:18 | 47.31549 | 10.35416 | 14436 ft | 333 kts | 100° |
| 2026-04-30 09:19 | 47.31099 | 10.38661 | 14348 ft | 321 kts | 100° |
| 2026-04-30 09:19 | 47.30658 | 10.41840 | 14228 ft | 311 kts | 100° |
| 2026-04-30 09:19 | 47.30231 | 10.44930 | 14090 ft | 303 kts | 100° |
| 2026-04-30 09:19 | 47.29816 | 10.47926 | 13955 ft | 294 kts | 100° |
| 2026-04-30 09:20 | 47.29412 | 10.50843 | 13828 ft | 286 kts | 100° |
| 2026-04-30 09:20 | 47.29026 | 10.53635 | 13705 ft | 277 kts | 100° |
| 2026-04-30 09:20 | 47.28660 | 10.56389 | 13584 ft | 270 kts | 96° |
| 2026-04-30 09:20 | 47.28654 | 10.59098 | 13467 ft | 261 kts | 84° |
| 2026-04-30 09:21 | 47.28799 | 10.61735 | 13350 ft | 254 kts | 84° |
| 2026-04-30 09:21 | 47.28933 | 10.64292 | 13240 ft | 247 kts | 84° |
| 2026-04-30 09:21 | 47.29061 | 10.66762 | 12915 ft | 245 kts | 84° |
| 2026-04-30 09:21 | 47.29189 | 10.69254 | 12504 ft | 241 kts | 85° |
| 2026-04-30 09:22 | 47.29313 | 10.71698 | 12120 ft | 238 kts | 85° |
| 2026-04-30 09:22 | 47.29436 | 10.74126 | 11734 ft | 235 kts | 85° |
| 2026-04-30 09:22 | 47.29557 | 10.76509 | 11368 ft | 232 kts | 85° |
| 2026-04-30 09:22 | 47.29676 | 10.78863 | 11002 ft | 228 kts | 86° |
| 2026-04-30 09:23 | 47.29792 | 10.81147 | 10650 ft | 225 kts | 86° |
| 2026-04-30 09:23 | 47.29908 | 10.83437 | 10287 ft | 224 kts | 86° |
| 2026-04-30 09:23 | 47.30026 | 10.85771 | 9691 ft | 231 kts | 86° |
| 2026-04-30 09:23 | 47.30143 | 10.88128 | 9248 ft | 228 kts | 86° |
| 2026-04-30 09:24 | 47.30254 | 10.90405 | 8880 ft | 223 kts | 86° |
| 2026-04-30 09:24 | 47.30365 | 10.92681 | 8525 ft | 221 kts | 86° |
| 2026-04-30 09:24 | 47.30472 | 10.94923 | 8177 ft | 217 kts | 86° |
| 2026-04-30 09:24 | 47.30576 | 10.97130 | 7841 ft | 215 kts | 86° |
| 2026-04-30 09:25 | 47.30680 | 10.99300 | 7527 ft | 208 kts | 86° |
| 2026-04-30 09:25 | 47.30780 | 11.01396 | 7195 ft | 200 kts | 86° |
| 2026-04-30 09:25 | 47.30876 | 11.03393 | 6893 ft | 190 kts | 86° |
| 2026-04-30 09:25 | 47.30967 | 11.05268 | 6586 ft | 181 kts | 86° |
| 2026-04-30 09:26 | 47.30900 | 11.07085 | 6316 ft | 173 kts | 100° |
| 2026-04-30 09:26 | 47.30544 | 11.08733 | 6015 ft | 165 kts | 114° |
| 2026-04-30 09:26 | 47.30071 | 11.10221 | 5732 ft | 156 kts | 115° |
| 2026-04-30 09:26 | 47.29610 | 11.11616 | 5485 ft | 147 kts | 116° |
| 2026-04-30 09:27 | 47.29166 | 11.12954 | 5265 ft | 143 kts | 114° |
| 2026-04-30 09:27 | 47.28732 | 11.14260 | 5046 ft | 143 kts | 114° |
| 2026-04-30 09:27 | 47.28291 | 11.15588 | 4835 ft | 143 kts | 113° |
| 2026-04-30 09:27 | 47.27854 | 11.16924 | 4662 ft | 146 kts | 113° |
| 2026-04-30 09:28 | 47.27407 | 11.18275 | 4392 ft | 148 kts | 115° |
| 2026-04-30 09:28 | 47.26965 | 11.19596 | 4180 ft | 143 kts | 115° |
| 2026-04-30 09:28 | 47.26532 | 11.20902 | 3923 ft | 140 kts | 115° |
| 2026-04-30 09:28 | 47.26111 | 11.22194 | 3703 ft | 140 kts | 114° |
| 2026-04-30 09:29 | 47.25691 | 11.23485 | 3494 ft | 140 kts | 115° |
| 2026-04-30 09:29 | 47.25319 | 11.24789 | 3242 ft | 139 kts | 104° |
| 2026-04-30 09:29 | 47.25183 | 11.26196 | 3052 ft | 139 kts | 89° |
| 2026-04-30 09:29 | 47.25288 | 11.27605 | 2849 ft | 138 kts | 81° |
| 2026-04-30 09:30 | 47.25443 | 11.29007 | 2614 ft | 138 kts | 81° |
| 2026-04-30 09:30 | 47.25592 | 11.30398 | 2388 ft | 137 kts | 81° |
| 2026-04-30 09:30 | 47.25737 | 11.31757 | 2150 ft | 134 kts | 81° |
| 2026-04-30 09:30 | 47.25882 | 11.33114 | 1941 ft | 134 kts | 81° |
| 2026-04-30 09:31 | 47.26016 | 11.34359 | 1899 ft | 98 kts | 81° |
| 2026-04-30 09:31 | 47.26075 | 11.34918 | 1898 ft | 25 kts | 81° |
| 2026-04-30 09:31 | 47.26101 | 11.35156 | 1901 ft | 16 kts | 81° |
| 2026-04-30 09:31 | 47.26052 | 11.35259 | 1897 ft | 15 kts | 167° |
| 2026-04-30 09:32 | 47.25944 | 11.35284 | 1897 ft | 14 kts | 172° |
| 2026-04-30 09:32 | 47.25896 | 11.35203 | 1903 ft | 11 kts | 259° |
| 2026-04-30 09:32 | 47.25883 | 11.35094 | 1897 ft | 10 kts | 261° |
| 2026-04-30 09:32 | 47.25863 | 11.35043 | 1900 ft | 5 kts | 204° |
| 2026-04-30 09:33 | 47.25836 | 11.35046 | 1893 ft | 3 kts | 166° |
| 2026-04-30 09:33 | 47.25818 | 11.35051 | 1900 ft | 2 kts | 170° |
| 2026-04-30 09:33 | 47.25813 | 11.35053 | 1902 ft | 0 kts | 170° |